sensor_id;sensor_type;location;lat;lon;timestamp;temperature;humidity
16243;DHT22;11719;51.052;6.982;2022-10-16T00:01:13;19.10;99.90
16243;DHT22;11719;51.052;6.982;2022-10-16T00:03:41;19.10;99.90
16243;DHT22;11719;51.052;6.982;2022-10-16T00:06:08;19.10;99.90
16243;DHT22;11719;51.052;6.982;2022-10-16T00:08:35;19.00;99.90
16243;DHT22;11719;51.052;6.982;2022-10-16T00:11:16;19.00;99.90
16243;DHT22;11719;51.052;6.982;2022-10-16T00:13:45;19.00;99.90
16243;DHT22;11719;51.052;6.982;2022-10-16T00:16:13;19.00;99.90
16243;DHT22;11719;51.052;6.982;2022-10-16T00:18:40;19.00;99.90
16243;DHT22;11719;51.052;6.982;2022-10-16T00:21:09;19.00;99.90
16243;DHT22;11719;51.052;6.982;2022-10-16T00:23:37;19.00;99.90
16243;DHT22;11719;51.052;6.982;2022-10-16T00:26:06;18.90;99.90
16243;DHT22;11719;51.052;6.982;2022-10-16T00:28:33;19.00;99.90
16243;DHT22;11719;51.052;6.982;2022-10-16T00:31:06;19.10;99.90
16243;DHT22;11719;51.052;6.982;2022-10-16T00:33:34;19.10;99.90
16243;DHT22;11719;51.052;6.982;2022-10-16T00:36:01;19.10;99.90
16243;DHT22;11719;51.052;6.982;2022-10-16T00:38:28;19.10;99.90
16243;DHT22;11719;51.052;6.982;2022-10-16T00:40:54;19.10;99.90
16243;DHT22;11719;51.052;6.982;2022-10-16T00:49:13;19.10;99.90
16243;DHT22;11719;51.052;6.982;2022-10-16T00:51:58;19.10;99.90
16243;DHT22;11719;51.052;6.982;2022-10-16T00:54:29;19.00;99.90
16243;DHT22;11719;51.052;6.982;2022-10-16T00:56:59;19.00;99.90
16243;DHT22;11719;51.052;6.982;2022-10-16T00:59:38;19.00;99.90
16243;DHT22;11719;51.052;6.982;2022-10-16T01:02:08;18.90;99.90
16243;DHT22;11719;51.052;6.982;2022-10-16T01:04:37;19.00;99.90
16243;DHT22;11719;51.052;6.982;2022-10-16T01:10:40;19.10;99.90
16243;DHT22;11719;51.052;6.982;2022-10-16T01:13:35;19.10;99.90
16243;DHT22;11719;51.052;6.982;2022-10-16T01:16:18;19.10;99.90
16243;DHT22;11719;51.052;6.982;2022-10-16T01:19:50;19.20;99.90
16243;DHT22;11719;51.052;6.982;2022-10-16T01:21:48;19.20;99.90
16243;DHT22;11719;51.052;6.982;2022-10-16T01:32:46;19.30;99.90
16243;DHT22;11719;51.052;6.982;2022-10-16T01:35:38;19.20;99.90
16243;DHT22;11719;51.052;6.982;2022-10-16T01:38:15;19.20;99.90
16243;DHT22;11719;51.052;6.982;2022-10-16T01:40:46;19.30;99.90
16243;DHT22;11719;51.052;6.982;2022-10-16T01:43:19;19.40;99.90
16243;DHT22;11719;51.052;6.982;2022-10-16T01:45:46;19.40;99.90
16243;DHT22;11719;51.052;6.982;2022-10-16T01:48:15;19.30;99.90
16243;DHT22;11719;51.052;6.982;2022-10-16T01:50:48;19.30;99.90
16243;DHT22;11719;51.052;6.982;2022-10-16T01:53:19;19.30;99.90
16243;DHT22;11719;51.052;6.982;2022-10-16T01:55:47;19.30;99.90
16243;DHT22;11719;51.052;6.982;2022-10-16T01:58:14;19.30;99.90
16243;DHT22;11719;51.052;6.982;2022-10-16T02:00:43;19.30;99.90
16243;DHT22;11719;51.052;6.982;2022-10-16T02:03:12;19.30;99.90
16243;DHT22;11719;51.052;6.982;2022-10-16T02:08:17;19.30;99.90
16243;DHT22;11719;51.052;6.982;2022-10-16T02:10:43;19.40;99.90
16243;DHT22;11719;51.052;6.982;2022-10-16T02:13:12;19.50;99.90
16243;DHT22;11719;51.052;6.982;2022-10-16T02:15:41;19.60;99.90
16243;DHT22;11719;51.052;6.982;2022-10-16T02:18:08;19.60;99.90
16243;DHT22;11719;51.052;6.982;2022-10-16T02:23:59;19.60;99.90
16243;DHT22;11719;51.052;6.982;2022-10-16T02:26:44;19.60;99.90
16243;DHT22;11719;51.052;6.982;2022-10-16T02:29:17;19.60;99.90
16243;DHT22;11719;51.052;6.982;2022-10-16T02:31:48;19.60;99.90
16243;DHT22;11719;51.052;6.982;2022-10-16T02:34:17;19.70;99.90
16243;DHT22;11719;51.052;6.982;2022-10-16T02:36:44;19.80;99.90
16243;DHT22;11719;51.052;6.982;2022-10-16T02:39:12;19.80;99.90
16243;DHT22;11719;51.052;6.982;2022-10-16T02:41:38;19.80;99.90
16243;DHT22;11719;51.052;6.982;2022-10-16T02:44:04;19.90;99.90
16243;DHT22;11719;51.052;6.982;2022-10-16T02:46:30;20.00;99.90
16243;DHT22;11719;51.052;6.982;2022-10-16T02:48:56;20.00;99.90
16243;DHT22;11719;51.052;6.982;2022-10-16T02:51:21;20.00;99.90
16243;DHT22;11719;51.052;6.982;2022-10-16T02:53:47;20.10;99.90
16243;DHT22;11719;51.052;6.982;2022-10-16T02:56:13;20.00;99.90
16243;DHT22;11719;51.052;6.982;2022-10-16T02:58:39;20.10;99.90
16243;DHT22;11719;51.052;6.982;2022-10-16T03:01:04;20.10;99.90
16243;DHT22;11719;51.052;6.982;2022-10-16T03:03:30;20.10;99.90
16243;DHT22;11719;51.052;6.982;2022-10-16T03:05:56;20.20;99.90
16243;DHT22;11719;51.052;6.982;2022-10-16T03:08:22;20.20;99.90
16243;DHT22;11719;51.052;6.982;2022-10-16T03:10:50;20.20;99.90
16243;DHT22;11719;51.052;6.982;2022-10-16T03:13:17;20.20;99.90
16243;DHT22;11719;51.052;6.982;2022-10-16T03:15:43;20.20;99.90
16243;DHT22;11719;51.052;6.982;2022-10-16T03:18:09;20.20;99.90
16243;DHT22;11719;51.052;6.982;2022-10-16T03:20:35;20.20;99.90
16243;DHT22;11719;51.052;6.982;2022-10-16T03:23:01;20.20;99.90
16243;DHT22;11719;51.052;6.982;2022-10-16T03:25:28;20.20;99.90
16243;DHT22;11719;51.052;6.982;2022-10-16T03:27:53;20.20;99.90
16243;DHT22;11719;51.052;6.982;2022-10-16T03:30:19;20.30;99.90
16243;DHT22;11719;51.052;6.982;2022-10-16T03:32:45;20.30;99.90
16243;DHT22;11719;51.052;6.982;2022-10-16T03:35:11;20.20;99.90
16243;DHT22;11719;51.052;6.982;2022-10-16T03:37:37;20.20;99.90
16243;DHT22;11719;51.052;6.982;2022-10-16T03:40:03;20.20;99.90
16243;DHT22;11719;51.052;6.982;2022-10-16T03:42:30;20.20;99.90
16243;DHT22;11719;51.052;6.982;2022-10-16T03:44:55;20.10;99.90
16243;DHT22;11719;51.052;6.982;2022-10-16T03:47:21;20.10;99.90
16243;DHT22;11719;51.052;6.982;2022-10-16T03:49:49;20.00;99.90
16243;DHT22;11719;51.052;6.982;2022-10-16T03:52:16;20.00;99.90
16243;DHT22;11719;51.052;6.982;2022-10-16T03:54:42;20.10;99.90
16243;DHT22;11719;51.052;6.982;2022-10-16T03:57:07;20.00;99.90
16243;DHT22;11719;51.052;6.982;2022-10-16T03:59:33;20.10;99.90
16243;DHT22;11719;51.052;6.982;2022-10-16T04:01:59;20.00;99.90
16243;DHT22;11719;51.052;6.982;2022-10-16T04:04:24;20.00;99.90
16243;DHT22;11719;51.052;6.982;2022-10-16T04:06:51;20.00;99.90
16243;DHT22;11719;51.052;6.982;2022-10-16T04:09:16;20.10;99.90
16243;DHT22;11719;51.052;6.982;2022-10-16T04:11:42;20.10;99.90
16243;DHT22;11719;51.052;6.982;2022-10-16T04:14:08;20.10;99.90
16243;DHT22;11719;51.052;6.982;2022-10-16T04:16:34;20.10;99.90
16243;DHT22;11719;51.052;6.982;2022-10-16T04:19:00;20.10;99.90
16243;DHT22;11719;51.052;6.982;2022-10-16T04:21:25;20.10;99.90
16243;DHT22;11719;51.052;6.982;2022-10-16T04:23:51;20.10;99.90
16243;DHT22;11719;51.052;6.982;2022-10-16T04:26:17;20.10;99.90
16243;DHT22;11719;51.052;6.982;2022-10-16T04:28:43;20.10;99.90
16243;DHT22;11719;51.052;6.982;2022-10-16T04:31:09;20.00;99.90
16243;DHT22;11719;51.052;6.982;2022-10-16T04:33:34;19.90;99.90
16243;DHT22;11719;51.052;6.982;2022-10-16T04:36:01;19.90;99.90
16243;DHT22;11719;51.052;6.982;2022-10-16T04:38:28;19.80;99.90
16243;DHT22;11719;51.052;6.982;2022-10-16T04:40:54;19.80;99.90
16243;DHT22;11719;51.052;6.982;2022-10-16T04:43:20;19.70;99.90
16243;DHT22;11719;51.052;6.982;2022-10-16T04:45:46;19.70;99.90
16243;DHT22;11719;51.052;6.982;2022-10-16T04:48:12;19.60;99.90
16243;DHT22;11719;51.052;6.982;2022-10-16T04:50:38;19.60;99.90
16243;DHT22;11719;51.052;6.982;2022-10-16T04:53:04;19.50;99.90
16243;DHT22;11719;51.052;6.982;2022-10-16T04:55:30;19.50;99.90
16243;DHT22;11719;51.052;6.982;2022-10-16T04:57:56;19.60;99.90
16243;DHT22;11719;51.052;6.982;2022-10-16T05:00:22;19.60;99.90
16243;DHT22;11719;51.052;6.982;2022-10-16T05:02:50;19.60;99.90
16243;DHT22;11719;51.052;6.982;2022-10-16T05:05:16;19.60;99.90
16243;DHT22;11719;51.052;6.982;2022-10-16T05:07:44;19.70;99.90
16243;DHT22;11719;51.052;6.982;2022-10-16T05:10:10;19.60;99.90
16243;DHT22;11719;51.052;6.982;2022-10-16T05:12:36;19.50;99.90
16243;DHT22;11719;51.052;6.982;2022-10-16T05:15:02;19.40;99.90
16243;DHT22;11719;51.052;6.982;2022-10-16T05:17:28;19.30;99.90
16243;DHT22;11719;51.052;6.982;2022-10-16T05:19:54;19.20;99.90
16243;DHT22;11719;51.052;6.982;2022-10-16T05:22:20;19.10;99.90
16243;DHT22;11719;51.052;6.982;2022-10-16T05:24:46;19.00;99.90
16243;DHT22;11719;51.052;6.982;2022-10-16T05:27:11;19.00;99.90
16243;DHT22;11719;51.052;6.982;2022-10-16T05:29:45;19.00;99.90
16243;DHT22;11719;51.052;6.982;2022-10-16T05:32:12;19.10;99.90
16243;DHT22;11719;51.052;6.982;2022-10-16T05:34:42;19.20;99.90
16243;DHT22;11719;51.052;6.982;2022-10-16T05:37:08;19.20;99.90
16243;DHT22;11719;51.052;6.982;2022-10-16T05:39:34;19.10;99.90
16243;DHT22;11719;51.052;6.982;2022-10-16T05:42:02;19.10;99.90
16243;DHT22;11719;51.052;6.982;2022-10-16T05:44:28;19.20;99.90
16243;DHT22;11719;51.052;6.982;2022-10-16T05:46:53;19.00;99.90
16243;DHT22;11719;51.052;6.982;2022-10-16T05:49:20;18.90;99.90
16243;DHT22;11719;51.052;6.982;2022-10-16T05:51:46;18.90;99.90
16243;DHT22;11719;51.052;6.982;2022-10-16T05:54:11;18.90;99.90
16243;DHT22;11719;51.052;6.982;2022-10-16T05:56:37;19.00;99.90
16243;DHT22;11719;51.052;6.982;2022-10-16T05:59:04;19.00;99.90
16243;DHT22;11719;51.052;6.982;2022-10-16T06:01:30;19.00;99.90
16243;DHT22;11719;51.052;6.982;2022-10-16T06:03:56;18.90;99.90
16243;DHT22;11719;51.052;6.982;2022-10-16T06:06:25;18.90;99.90
16243;DHT22;11719;51.052;6.982;2022-10-16T06:08:53;18.90;99.90
16243;DHT22;11719;51.052;6.982;2022-10-16T06:11:22;19.00;99.90
16243;DHT22;11719;51.052;6.982;2022-10-16T06:13:54;19.10;99.90
16243;DHT22;11719;51.052;6.982;2022-10-16T06:16:26;19.10;99.90
16243;DHT22;11719;51.052;6.982;2022-10-16T06:18:53;19.10;99.90
16243;DHT22;11719;51.052;6.982;2022-10-16T06:21:23;19.10;99.90
16243;DHT22;11719;51.052;6.982;2022-10-16T06:23:53;19.20;99.90
16243;DHT22;11719;51.052;6.982;2022-10-16T06:26:21;19.20;99.90
16243;DHT22;11719;51.052;6.982;2022-10-16T06:28:48;19.30;99.90
16243;DHT22;11719;51.052;6.982;2022-10-16T06:31:15;19.30;99.90
16243;DHT22;11719;51.052;6.982;2022-10-16T06:33:42;19.30;99.90
16243;DHT22;11719;51.052;6.982;2022-10-16T06:36:11;19.30;99.90
16243;DHT22;11719;51.052;6.982;2022-10-16T06:38:38;19.40;99.90
16243;DHT22;11719;51.052;6.982;2022-10-16T06:41:05;19.40;99.90
16243;DHT22;11719;51.052;6.982;2022-10-16T06:43:32;19.40;99.90
16243;DHT22;11719;51.052;6.982;2022-10-16T06:46:00;19.40;99.90
16243;DHT22;11719;51.052;6.982;2022-10-16T06:48:28;19.40;99.90
16243;DHT22;11719;51.052;6.982;2022-10-16T06:53:29;19.50;99.90
16243;DHT22;11719;51.052;6.982;2022-10-16T06:55:57;19.50;99.90
16243;DHT22;11719;51.052;6.982;2022-10-16T06:58:23;19.60;99.90
16243;DHT22;11719;51.052;6.982;2022-10-16T07:00:55;19.70;99.90
16243;DHT22;11719;51.052;6.982;2022-10-16T07:03:22;19.80;99.90
16243;DHT22;11719;51.052;6.982;2022-10-16T07:05:48;19.90;99.90
16243;DHT22;11719;51.052;6.982;2022-10-16T07:08:14;19.90;99.90
16243;DHT22;11719;51.052;6.982;2022-10-16T07:10:39;19.90;99.90
16243;DHT22;11719;51.052;6.982;2022-10-16T07:13:05;20.00;99.90
16243;DHT22;11719;51.052;6.982;2022-10-16T07:15:33;20.00;99.90
16243;DHT22;11719;51.052;6.982;2022-10-16T07:17:59;20.10;99.90
16243;DHT22;11719;51.052;6.982;2022-10-16T07:20:25;20.10;99.90
16243;DHT22;11719;51.052;6.982;2022-10-16T07:22:51;20.10;99.90
16243;DHT22;11719;51.052;6.982;2022-10-16T07:25:17;20.10;99.90
16243;DHT22;11719;51.052;6.982;2022-10-16T07:27:43;20.10;99.90
16243;DHT22;11719;51.052;6.982;2022-10-16T07:30:09;20.10;99.90
16243;DHT22;11719;51.052;6.982;2022-10-16T07:32:35;20.10;99.90
16243;DHT22;11719;51.052;6.982;2022-10-16T07:35:01;20.00;99.90
16243;DHT22;11719;51.052;6.982;2022-10-16T07:37:27;20.10;99.90
16243;DHT22;11719;51.052;6.982;2022-10-16T07:39:53;20.00;99.90
16243;DHT22;11719;51.052;6.982;2022-10-16T07:42:18;20.00;99.90
16243;DHT22;11719;51.052;6.982;2022-10-16T07:44:45;19.80;99.90
16243;DHT22;11719;51.052;6.982;2022-10-16T07:47:11;19.70;99.90
16243;DHT22;11719;51.052;6.982;2022-10-16T07:49:37;19.80;99.90
16243;DHT22;11719;51.052;6.982;2022-10-16T07:52:02;19.80;99.90
16243;DHT22;11719;51.052;6.982;2022-10-16T07:54:28;19.80;99.90
16243;DHT22;11719;51.052;6.982;2022-10-16T07:56:54;19.90;99.90
16243;DHT22;11719;51.052;6.982;2022-10-16T07:59:20;19.90;99.90
16243;DHT22;11719;51.052;6.982;2022-10-16T08:01:46;20.00;99.90
16243;DHT22;11719;51.052;6.982;2022-10-16T08:04:12;19.90;99.90
16243;DHT22;11719;51.052;6.982;2022-10-16T08:06:39;19.90;99.90
16243;DHT22;11719;51.052;6.982;2022-10-16T08:09:06;19.70;99.90
16243;DHT22;11719;51.052;6.982;2022-10-16T08:11:33;19.60;99.90
16243;DHT22;11719;51.052;6.982;2022-10-16T08:13:59;19.60;99.90
16243;DHT22;11719;51.052;6.982;2022-10-16T08:16:24;19.40;99.90
16243;DHT22;11719;51.052;6.982;2022-10-16T08:18:50;19.30;99.90
16243;DHT22;11719;51.052;6.982;2022-10-16T08:21:19;19.20;99.90
16243;DHT22;11719;51.052;6.982;2022-10-16T08:23:46;19.20;99.90
16243;DHT22;11719;51.052;6.982;2022-10-16T08:26:12;19.00;99.90
16243;DHT22;11719;51.052;6.982;2022-10-16T08:28:38;19.00;99.90
16243;DHT22;11719;51.052;6.982;2022-10-16T08:31:12;19.00;99.90
16243;DHT22;11719;51.052;6.982;2022-10-16T08:33:42;19.00;99.90
16243;DHT22;11719;51.052;6.982;2022-10-16T08:36:10;19.00;99.90
16243;DHT22;11719;51.052;6.982;2022-10-16T08:38:37;18.90;99.90
16243;DHT22;11719;51.052;6.982;2022-10-16T08:41:37;19.00;99.90
16243;DHT22;11719;51.052;6.982;2022-10-16T08:47:20;19.00;99.90
16243;DHT22;11719;51.052;6.982;2022-10-16T08:50:07;19.10;99.90
16243;DHT22;11719;51.052;6.982;2022-10-16T08:52:38;19.10;99.90
16243;DHT22;11719;51.052;6.982;2022-10-16T08:55:08;19.10;99.90
16243;DHT22;11719;51.052;6.982;2022-10-16T08:57:55;19.10;99.90
16243;DHT22;11719;51.052;6.982;2022-10-16T09:00:21;19.20;99.90
16243;DHT22;11719;51.052;6.982;2022-10-16T09:14:00;19.10;99.90
16243;DHT22;11719;51.052;6.982;2022-10-16T09:16:39;19.10;99.90
16243;DHT22;11719;51.052;6.982;2022-10-16T09:19:16;19.20;99.90
16243;DHT22;11719;51.052;6.982;2022-10-16T09:21:46;19.10;99.90
16243;DHT22;11719;51.052;6.982;2022-10-16T09:24:18;19.20;99.90
16243;DHT22;11719;51.052;6.982;2022-10-16T09:26:49;19.30;99.90
16243;DHT22;11719;51.052;6.982;2022-10-16T09:29:17;19.40;99.90
16243;DHT22;11719;51.052;6.982;2022-10-16T09:31:48;19.50;99.90
16243;DHT22;11719;51.052;6.982;2022-10-16T09:34:53;19.60;99.90
16243;DHT22;11719;51.052;6.982;2022-10-16T09:37:22;19.70;99.90
16243;DHT22;11719;51.052;6.982;2022-10-16T09:39:53;19.70;99.90
16243;DHT22;11719;51.052;6.982;2022-10-16T09:42:22;19.80;99.90
16243;DHT22;11719;51.052;6.982;2022-10-16T09:44:52;19.80;99.90
16243;DHT22;11719;51.052;6.982;2022-10-16T09:47:21;19.90;99.90
16243;DHT22;11719;51.052;6.982;2022-10-16T09:50:00;19.90;99.90
16243;DHT22;11719;51.052;6.982;2022-10-16T09:52:30;20.00;99.90
16243;DHT22;11719;51.052;6.982;2022-10-16T09:54:58;19.90;99.90
16243;DHT22;11719;51.052;6.982;2022-10-16T09:57:26;20.00;99.90
16243;DHT22;11719;51.052;6.982;2022-10-16T09:59:56;19.90;99.90
16243;DHT22;11719;51.052;6.982;2022-10-16T10:02:28;19.80;99.90
16243;DHT22;11719;51.052;6.982;2022-10-16T10:04:55;19.90;99.90
16243;DHT22;11719;51.052;6.982;2022-10-16T10:07:27;19.90;99.90
16243;DHT22;11719;51.052;6.982;2022-10-16T10:09:59;20.00;99.90
16243;DHT22;11719;51.052;6.982;2022-10-16T10:12:27;20.00;99.90
16243;DHT22;11719;51.052;6.982;2022-10-16T10:14:58;20.10;99.90
16243;DHT22;11719;51.052;6.982;2022-10-16T10:17:30;20.10;99.90
16243;DHT22;11719;51.052;6.982;2022-10-16T10:20:01;20.20;99.90
16243;DHT22;11719;51.052;6.982;2022-10-16T10:22:44;20.20;99.90
16243;DHT22;11719;51.052;6.982;2022-10-16T10:28:11;20.30;99.90
16243;DHT22;11719;51.052;6.982;2022-10-16T10:34:08;20.30;99.90
16243;DHT22;11719;51.052;6.982;2022-10-16T10:36:48;20.30;99.90
16243;DHT22;11719;51.052;6.982;2022-10-16T10:39:32;20.30;99.90
16243;DHT22;11719;51.052;6.982;2022-10-16T10:42:14;20.40;99.90
16243;DHT22;11719;51.052;6.982;2022-10-16T10:47:44;20.30;99.90
16243;DHT22;11719;51.052;6.982;2022-10-16T10:50:45;20.30;99.90
16243;DHT22;11719;51.052;6.982;2022-10-16T10:53:44;20.40;99.90
16243;DHT22;11719;51.052;6.982;2022-10-16T11:05:23;20.50;99.90
16243;DHT22;11719;51.052;6.982;2022-10-16T11:07:58;20.50;99.90
16243;DHT22;11719;51.052;6.982;2022-10-16T11:10:30;20.50;99.90
16243;DHT22;11719;51.052;6.982;2022-10-16T11:13:16;20.50;99.90
16243;DHT22;11719;51.052;6.982;2022-10-16T11:15:48;20.50;99.90
16243;DHT22;11719;51.052;6.982;2022-10-16T11:18:27;20.50;99.90
16243;DHT22;11719;51.052;6.982;2022-10-16T11:21:08;20.50;99.90
16243;DHT22;11719;51.052;6.982;2022-10-16T11:23:53;20.50;99.90
16243;DHT22;11719;51.052;6.982;2022-10-16T11:26:28;20.50;99.90
16243;DHT22;11719;51.052;6.982;2022-10-16T11:29:01;20.50;99.90
16243;DHT22;11719;51.052;6.982;2022-10-16T11:31:34;20.50;99.90
16243;DHT22;11719;51.052;6.982;2022-10-16T11:36:56;20.50;99.90
16243;DHT22;11719;51.052;6.982;2022-10-16T11:39:29;20.50;99.90
16243;DHT22;11719;51.052;6.982;2022-10-16T11:42:11;20.50;99.90
16243;DHT22;11719;51.052;6.982;2022-10-16T11:50:21;20.60;99.90
16243;DHT22;11719;51.052;6.982;2022-10-16T11:53:38;20.60;99.90
16243;DHT22;11719;51.052;6.982;2022-10-16T11:56:12;20.60;99.90
16243;DHT22;11719;51.052;6.982;2022-10-16T11:59:04;20.60;99.90
16243;DHT22;11719;51.052;6.982;2022-10-16T12:01:40;20.60;99.90
16243;DHT22;11719;51.052;6.982;2022-10-16T12:07:08;20.60;99.90
16243;DHT22;11719;51.052;6.982;2022-10-16T12:09:40;20.60;99.90
16243;DHT22;11719;51.052;6.982;2022-10-16T12:15:22;20.60;99.90
16243;DHT22;11719;51.052;6.982;2022-10-16T12:17:56;20.60;99.90
16243;DHT22;11719;51.052;6.982;2022-10-16T12:20:29;20.60;99.90
16243;DHT22;11719;51.052;6.982;2022-10-16T12:22:59;20.60;99.90
16243;DHT22;11719;51.052;6.982;2022-10-16T12:25:31;20.60;99.90
16243;DHT22;11719;51.052;6.982;2022-10-16T12:30:38;20.60;99.90
16243;DHT22;11719;51.052;6.982;2022-10-16T12:33:06;20.60;99.90
16243;DHT22;11719;51.052;6.982;2022-10-16T12:35:46;20.60;99.90
16243;DHT22;11719;51.052;6.982;2022-10-16T12:38:25;20.60;99.90
16243;DHT22;11719;51.052;6.982;2022-10-16T12:41:04;20.60;99.90
16243;DHT22;11719;51.052;6.982;2022-10-16T12:48:34;20.70;99.90
16243;DHT22;11719;51.052;6.982;2022-10-16T12:54:12;20.70;99.90
16243;DHT22;11719;51.052;6.982;2022-10-16T12:57:08;20.70;99.90
16243;DHT22;11719;51.052;6.982;2022-10-16T13:12:15;20.80;99.90
16243;DHT22;11719;51.052;6.982;2022-10-16T13:17:49;20.80;99.90
16243;DHT22;11719;51.052;6.982;2022-10-16T13:23:37;20.80;99.90
16243;DHT22;11719;51.052;6.982;2022-10-16T13:29:01;20.70;99.90
16243;DHT22;11719;51.052;6.982;2022-10-16T13:31:28;20.80;99.90
16243;DHT22;11719;51.052;6.982;2022-10-16T13:33:56;20.80;99.90
16243;DHT22;11719;51.052;6.982;2022-10-16T13:36:35;20.90;99.90
16243;DHT22;11719;51.052;6.982;2022-10-16T13:42:26;21.30;99.90
16243;DHT22;11719;51.052;6.982;2022-10-16T13:44:54;21.50;99.90
16243;DHT22;11719;51.052;6.982;2022-10-16T13:47:26;21.50;99.90
16243;DHT22;11719;51.052;6.982;2022-10-16T13:50:06;21.80;99.90
16243;DHT22;11719;51.052;6.982;2022-10-16T13:52:35;21.70;99.90
16243;DHT22;11719;51.052;6.982;2022-10-16T13:55:02;21.60;99.90
16243;DHT22;11719;51.052;6.982;2022-10-16T13:57:28;21.40;99.90
16243;DHT22;11719;51.052;6.982;2022-10-16T13:59:54;21.30;99.90
16243;DHT22;11719;51.052;6.982;2022-10-16T14:05:04;21.20;99.90
16243;DHT22;11719;51.052;6.982;2022-10-16T14:07:32;21.10;99.90
16243;DHT22;11719;51.052;6.982;2022-10-16T14:10:05;20.90;99.90
16243;DHT22;11719;51.052;6.982;2022-10-16T14:12:58;20.90;99.90
16243;DHT22;11719;51.052;6.982;2022-10-16T14:15:26;20.90;99.90
16243;DHT22;11719;51.052;6.982;2022-10-16T14:17:53;20.90;99.90
16243;DHT22;11719;51.052;6.982;2022-10-16T14:20:23;20.90;99.90
16243;DHT22;11719;51.052;6.982;2022-10-16T14:23:34;20.90;99.90
16243;DHT22;11719;51.052;6.982;2022-10-16T14:28:34;20.80;99.90
16243;DHT22;11719;51.052;6.982;2022-10-16T14:31:02;20.80;99.90
16243;DHT22;11719;51.052;6.982;2022-10-16T14:33:45;20.80;99.90
16243;DHT22;11719;51.052;6.982;2022-10-16T14:36:12;20.70;99.90
16243;DHT22;11719;51.052;6.982;2022-10-16T14:38:43;20.70;99.90
16243;DHT22;11719;51.052;6.982;2022-10-16T14:41:15;20.70;99.90
16243;DHT22;11719;51.052;6.982;2022-10-16T14:43:42;20.70;99.90
16243;DHT22;11719;51.052;6.982;2022-10-16T14:46:22;20.70;99.90
16243;DHT22;11719;51.052;6.982;2022-10-16T14:49:03;20.70;99.90
16243;DHT22;11719;51.052;6.982;2022-10-16T14:51:40;20.70;99.90
16243;DHT22;11719;51.052;6.982;2022-10-16T14:54:12;20.70;99.90
16243;DHT22;11719;51.052;6.982;2022-10-16T14:59:36;20.70;99.90
16243;DHT22;11719;51.052;6.982;2022-10-16T15:02:33;20.70;99.90
16243;DHT22;11719;51.052;6.982;2022-10-16T15:07:45;20.70;99.90
16243;DHT22;11719;51.052;6.982;2022-10-16T15:10:16;20.70;99.90
16243;DHT22;11719;51.052;6.982;2022-10-16T15:12:43;20.70;99.90
16243;DHT22;11719;51.052;6.982;2022-10-16T15:17:53;20.60;99.90
16243;DHT22;11719;51.052;6.982;2022-10-16T15:20:32;20.70;99.90
16243;DHT22;11719;51.052;6.982;2022-10-16T15:23:01;20.70;99.90
16243;DHT22;11719;51.052;6.982;2022-10-16T15:25:43;20.70;99.90
16243;DHT22;11719;51.052;6.982;2022-10-16T15:28:10;20.70;99.90
16243;DHT22;11719;51.052;6.982;2022-10-16T15:30:37;20.70;99.90
16243;DHT22;11719;51.052;6.982;2022-10-16T15:33:04;20.70;99.90
16243;DHT22;11719;51.052;6.982;2022-10-16T15:35:31;20.70;99.90
16243;DHT22;11719;51.052;6.982;2022-10-16T15:37:57;20.70;99.90
16243;DHT22;11719;51.052;6.982;2022-10-16T15:40:23;20.70;99.90
16243;DHT22;11719;51.052;6.982;2022-10-16T15:42:49;20.70;99.90
16243;DHT22;11719;51.052;6.982;2022-10-16T15:45:16;20.70;99.90
16243;DHT22;11719;51.052;6.982;2022-10-16T15:47:42;20.70;99.90
16243;DHT22;11719;51.052;6.982;2022-10-16T15:50:10;20.70;99.90
16243;DHT22;11719;51.052;6.982;2022-10-16T15:52:38;20.70;99.90
16243;DHT22;11719;51.052;6.982;2022-10-16T15:55:08;20.60;99.90
16243;DHT22;11719;51.052;6.982;2022-10-16T15:57:36;20.60;99.90
16243;DHT22;11719;51.052;6.982;2022-10-16T16:00:06;20.60;99.90
16243;DHT22;11719;51.052;6.982;2022-10-16T16:02:33;20.60;99.90
16243;DHT22;11719;51.052;6.982;2022-10-16T16:04:59;20.60;99.90
16243;DHT22;11719;51.052;6.982;2022-10-16T16:07:24;20.60;99.90
16243;DHT22;11719;51.052;6.982;2022-10-16T16:09:50;20.60;99.90
16243;DHT22;11719;51.052;6.982;2022-10-16T16:12:16;20.60;99.90
16243;DHT22;11719;51.052;6.982;2022-10-16T16:14:42;20.60;99.90
16243;DHT22;11719;51.052;6.982;2022-10-16T16:17:11;20.60;99.90
16243;DHT22;11719;51.052;6.982;2022-10-16T16:19:37;20.60;99.90
16243;DHT22;11719;51.052;6.982;2022-10-16T16:22:02;20.60;99.90
16243;DHT22;11719;51.052;6.982;2022-10-16T16:24:28;20.50;99.90
16243;DHT22;11719;51.052;6.982;2022-10-16T16:26:54;20.60;99.90
16243;DHT22;11719;51.052;6.982;2022-10-16T16:29:20;20.50;99.90
16243;DHT22;11719;51.052;6.982;2022-10-16T16:31:46;20.50;99.90
16243;DHT22;11719;51.052;6.982;2022-10-16T16:34:13;20.50;99.90
16243;DHT22;11719;51.052;6.982;2022-10-16T16:36:39;20.50;99.90
16243;DHT22;11719;51.052;6.982;2022-10-16T16:39:06;20.50;99.90
16243;DHT22;11719;51.052;6.982;2022-10-16T16:41:32;20.60;99.90
16243;DHT22;11719;51.052;6.982;2022-10-16T16:44:06;20.60;99.90
16243;DHT22;11719;51.052;6.982;2022-10-16T16:46:33;20.60;99.90
16243;DHT22;11719;51.052;6.982;2022-10-16T16:49:00;20.60;99.90
16243;DHT22;11719;51.052;6.982;2022-10-16T16:51:27;20.60;99.90
16243;DHT22;11719;51.052;6.982;2022-10-16T16:53:53;20.60;99.90
16243;DHT22;11719;51.052;6.982;2022-10-16T16:56:21;20.60;99.90
16243;DHT22;11719;51.052;6.982;2022-10-16T16:58:48;20.60;99.90
16243;DHT22;11719;51.052;6.982;2022-10-16T17:01:15;20.60;99.90
16243;DHT22;11719;51.052;6.982;2022-10-16T17:03:43;20.60;99.90
16243;DHT22;11719;51.052;6.982;2022-10-16T17:06:11;20.60;99.90
16243;DHT22;11719;51.052;6.982;2022-10-16T17:08:38;20.60;99.90
16243;DHT22;11719;51.052;6.982;2022-10-16T17:11:05;20.60;99.90
16243;DHT22;11719;51.052;6.982;2022-10-16T17:13:33;20.60;99.90
16243;DHT22;11719;51.052;6.982;2022-10-16T17:16:02;20.60;99.90
16243;DHT22;11719;51.052;6.982;2022-10-16T17:18:29;20.60;99.90
16243;DHT22;11719;51.052;6.982;2022-10-16T17:20:59;20.60;99.90
16243;DHT22;11719;51.052;6.982;2022-10-16T17:23:26;20.60;99.90
16243;DHT22;11719;51.052;6.982;2022-10-16T17:25:52;20.50;99.90
16243;DHT22;11719;51.052;6.982;2022-10-16T17:28:18;20.50;99.90
16243;DHT22;11719;51.052;6.982;2022-10-16T17:30:44;20.50;99.90
16243;DHT22;11719;51.052;6.982;2022-10-16T17:33:11;20.50;99.90
16243;DHT22;11719;51.052;6.982;2022-10-16T17:35:42;20.50;99.90
16243;DHT22;11719;51.052;6.982;2022-10-16T17:38:10;20.50;99.90
16243;DHT22;11719;51.052;6.982;2022-10-16T17:40:37;20.50;99.90
16243;DHT22;11719;51.052;6.982;2022-10-16T17:43:03;20.50;99.90
16243;DHT22;11719;51.052;6.982;2022-10-16T17:45:29;20.50;99.90
16243;DHT22;11719;51.052;6.982;2022-10-16T17:47:57;20.50;99.90
16243;DHT22;11719;51.052;6.982;2022-10-16T17:50:23;20.50;99.90